Time;durP1;ratioP1;P1;durP2;ratioP2;P2;SDS_P1;SDS_P2;PMS_P1;PMS_P2;Temp;Humidity;BMP_temperature;BMP_pressure;BME280_temperature;BME280_humidity;BME280_pressure;Samples;Min_cycle;Max_cycle;Signal;HPM_P1;HPM_P2
2022/01/16 00:00:23;;;;;;;204.13;165.20;;;;;;;14.60;30.88;94196.72;5008935;28;20046;-64
2022/01/16 00:05:52;;;;;;;190.45;153.65;;;;;;;14.58;30.89;94181.00;5009267;28;20057;-64
2022/01/16 00:08:18;;;;;;;197.25;160.82;;;;;;;14.59;30.64;94173.69;5009704;28;20057;-63
2022/01/16 00:10:44;;;;;;;194.45;157.13;;;;;;;14.59;30.76;94192.53;5011378;28;20442;-64
2022/01/16 00:13:09;;;;;;;195.32;159.80;;;;;;;14.60;30.74;94208.25;5011096;28;20053;-64
2022/01/16 00:15:35;;;;;;;210.63;170.88;;;;;;;14.59;30.93;94197.91;5005985;28;20052;-64
2022/01/16 00:20:29;;;;;;;207.70;169.50;;;;;;;14.57;30.75;94179.50;5010358;28;20069;-64
2022/01/16 00:22:55;;;;;;;195.60;160.93;;;;;;;14.59;30.96;94201.34;5009686;28;20088;-64
2022/01/16 00:25:21;;;;;;;198.13;163.32;;;;;;;14.58;30.65;94186.38;5008343;28;20053;-65
2022/01/16 00:27:47;;;;;;;196.88;159.82;;;;;;;14.57;30.63;94151.81;5008436;28;20049;-63
2022/01/16 00:30:14;;;;;;;202.50;164.02;;;;;;;14.58;30.75;94162.16;5008535;28;20406;-64
2022/01/16 00:32:39;;;;;;;194.27;158.50;;;;;;;14.58;30.86;94177.56;5011720;28;20053;-65
2022/01/16 00:35:05;;;;;;;189.57;154.35;;;;;;;14.59;30.75;94203.28;5008059;28;20457;-64
2022/01/16 00:37:31;;;;;;;197.23;158.80;;;;;;;14.56;30.89;94177.97;5008626;28;20045;-65
2022/01/16 00:39:57;;;;;;;201.55;165.00;;;;;;;14.58;30.78;94207.91;5005005;28;20038;-63
2022/01/16 00:42:22;;;;;;;195.82;159.75;;;;;;;14.59;30.88;94195.22;5007628;28;20796;-64
2022/01/16 00:44:48;;;;;;;197.43;161.20;;;;;;;14.58;30.92;94210.59;5009625;28;20422;-64
2022/01/16 00:47:13;;;;;;;194.50;158.15;;;;;;;14.58;30.92;94185.63;5007958;28;20066;-64
2022/01/16 00:49:41;;;;;;;196.45;161.35;;;;;;;14.56;30.80;94172.59;5006918;28;20116;-64
2022/01/16 00:52:08;;;;;;;194.30;157.35;;;;;;;14.57;30.52;94176.81;5008892;28;20119;-64
2022/01/16 00:54:34;;;;;;;193.80;157.57;;;;;;;14.56;30.67;94177.97;5009152;28;20540;-65
2022/01/16 00:57:00;;;;;;;197.00;161.70;;;;;;;14.58;30.79;94193.69;5006055;28;20065;-64
2022/01/16 00:59:25;;;;;;;196.43;159.85;;;;;;;14.57;30.64;94200.25;5005441;28;20213;-64
2022/01/16 01:01:51;;;;;;;198.30;161.18;;;;;;;14.56;30.76;94193.38;5009209;28;20069;-64
2022/01/16 01:04:17;;;;;;;197.73;161.55;;;;;;;14.56;30.77;94204.13;5005959;28;20107;-65
2022/01/16 01:06:43;;;;;;;193.35;159.15;;;;;;;14.55;30.56;94219.53;5005707;28;20240;-64
2022/01/16 01:09:08;;;;;;;205.35;167.45;;;;;;;14.56;30.54;94202.19;5005799;28;20501;-64
2022/01/16 01:11:36;;;;;;;193.23;158.80;;;;;;;14.56;30.71;94212.97;5007231;28;20057;-64
2022/01/16 01:16:48;;;;;;;196.15;159.88;;;;;;;14.55;30.72;94143.44;5008845;28;20076;-65
2022/01/16 01:19:13;;;;;;;194.00;156.23;;;;;;;14.54;30.81;94126.53;5008268;28;20446;-64
2022/01/16 01:21:39;;;;;;;196.48;160.68;;;;;;;14.54;30.54;94118.44;5011369;28;20065;-64
2022/01/16 01:24:05;;;;;;;203.43;165.30;;;;;;;14.53;30.71;94124.25;5007259;28;20050;-64
2022/01/16 01:26:36;;;;;;;190.30;155.90;;;;;;;14.55;30.61;94132.66;5003872;28;20054;-65
2022/01/16 01:29:03;;;;;;;196.85;159.55;;;;;;;14.54;30.86;94136.53;5009045;28;20108;-65
2022/01/16 01:31:30;;;;;;;194.57;158.70;;;;;;;14.54;30.66;94161.50;5006130;28;20123;-64
2022/01/16 01:33:56;;;;;;;199.00;161.20;;;;;;;14.53;30.68;94160.00;5004364;28;20057;-64
2022/01/16 01:36:21;;;;;;;196.30;160.57;;;;;;;14.54;30.50;94176.91;4990485;28;20414;-65
2022/01/16 01:38:47;;;;;;;193.77;157.40;;;;;;;14.53;30.52;94192.28;5008670;28;20394;-65
2022/01/16 01:41:12;;;;;;;197.55;161.75;;;;;;;14.53;30.63;94194.97;5007031;28;20207;-65
2022/01/16 01:51:38;;;;;;;195.68;158.43;;;;;;;14.52;30.54;94188.09;5008623;28;20056;-64
2022/01/16 01:54:06;;;;;;;205.10;165.55;;;;;;;14.49;30.71;94173.56;4988296;28;20117;-65
2022/01/16 01:56:32;;;;;;;192.95;156.10;;;;;;;14.53;30.59;94189.59;4988769;28;20053;-65
2022/01/16 01:59:00;;;;;;;194.40;157.27;;;;;;;14.52;30.48;94184.66;5008786;28;20045;-64
2022/01/16 02:01:27;;;;;;;200.02;161.75;;;;;;;14.49;30.52;94197.00;4991335;28;22352;-64
2022/01/16 02:03:53;;;;;;;199.98;162.32;;;;;;;14.49;30.60;94208.53;5007231;28;20077;-64
2022/01/16 02:06:23;;;;;;;196.45;159.50;;;;;;;14.49;30.53;94210.47;5005321;28;20187;-63
2022/01/16 02:08:52;;;;;;;198.20;159.55;;;;;;;14.49;30.45;94208.53;5007663;28;20120;-64
2022/01/16 02:11:24;;;;;;;196.13;159.02;;;;;;;14.49;30.49;94218.53;5007294;28;20484;-65
2022/01/16 02:30:42;;;;;;;193.43;155.52;;;;;;;14.45;30.49;94180.22;5006014;28;20041;-64
2022/01/16 02:35:32;;;;;;;200.43;161.07;;;;;;;14.43;30.22;94188.72;5007975;28;20486;-65
2022/01/16 02:37:58;;;;;;;197.52;160.48;;;;;;;14.43;30.47;94191.41;5014792;28;20428;-64
2022/01/16 02:40:26;;;;;;;191.00;154.95;;;;;;;14.43;30.51;94186.00;5009145;28;20108;-64
2022/01/16 02:42:52;;;;;;;193.23;156.10;;;;;;;14.43;30.57;94179.88;5009405;28;20052;-64
2022/01/16 02:45:31;;;;;;;194.57;157.50;;;;;;;14.44;30.22;94170.63;4975963;28;1076175;-64
2022/01/16 02:48:07;;;;;;;196.07;158.00;;;;;;;14.43;30.51;94175.25;5012743;28;20049;-65
2022/01/16 02:50:37;;;;;;;209.05;168.88;;;;;;;14.42;30.35;94171.06;5011395;28;20105;-64
2022/01/16 02:53:09;;;;;;;196.35;157.00;;;;;;;14.43;30.55;94167.19;5010781;28;20495;-64
2022/01/16 02:55:34;;;;;;;206.75;167.23;;;;;;;14.43;30.56;94155.66;5009310;28;20046;-64
2022/01/16 02:58:00;;;;;;;201.90;164.93;;;;;;;14.43;30.57;94147.59;5008253;28;20050;-64
2022/01/16 03:00:26;;;;;;;202.95;164.52;;;;;;;14.43;30.32;94147.59;5010384;28;20409;-65
2022/01/16 03:02:52;;;;;;;193.27;156.65;;;;;;;14.42;30.54;94148.78;5012903;28;20050;-64
2022/01/16 03:05:18;;;;;;;197.25;159.02;;;;;;;14.42;30.43;94152.22;5013555;28;20049;-65
2022/01/16 03:07:45;;;;;;;198.40;161.40;;;;;;;14.42;30.43;94148.78;5008693;28;20056;-64
2022/01/16 03:12:47;;;;;;;195.73;158.10;;;;;;;14.40;30.66;94141.09;5008308;28;20056;-64
2022/01/16 03:15:18;;;;;;;209.05;169.65;;;;;;;14.41;30.42;94144.53;5011296;28;20143;-64
2022/01/16 03:23:02;;;;;;;197.20;159.55;;;;;;;14.40;30.11;94138.41;5011849;28;20067;-64
2022/01/16 03:25:28;;;;;;;200.57;163.38;;;;;;;14.40;29.89;94138.41;5010692;28;20574;-64
2022/01/16 03:27:53;;;;;;;199.63;161.35;;;;;;;14.39;30.33;94134.22;5006230;28;20065;-64
2022/01/16 03:30:19;;;;;;;198.43;159.23;;;;;;;14.40;30.21;94135.72;5009693;28;20811;-64
2022/01/16 03:32:45;;;;;;;193.80;157.40;;;;;;;14.39;30.32;94128.81;5009041;28;20053;-64
2022/01/16 03:35:10;;;;;;;197.23;160.40;;;;;;;14.39;30.32;94128.81;5012336;28;20033;-65
2022/01/16 03:37:36;;;;;;;191.85;154.50;;;;;;;14.39;30.22;94123.44;5009048;28;20050;-64
2022/01/16 03:40:04;;;;;;;195.27;157.02;;;;;;;14.39;30.29;94117.31;5010970;28;20355;-64
2022/01/16 03:42:33;;;;;;;192.00;156.45;;;;;;;14.39;30.06;94118.06;5009420;28;20053;-64
2022/01/16 03:45:00;;;;;;;191.15;155.27;;;;;;;14.38;30.31;94108.47;5010295;28;20065;-64
2022/01/16 03:47:26;;;;;;;190.32;153.20;;;;;;;14.37;30.25;94103.53;5006710;28;20451;-64
2022/01/16 03:49:51;;;;;;;194.88;157.45;;;;;;;14.37;30.31;94106.22;5009251;28;20105;-64
2022/01/16 03:52:17;;;;;;;201.77;162.38;;;;;;;14.38;30.13;94108.47;5004973;28;20065;-63
2022/01/16 03:54:42;;;;;;;204.77;165.27;;;;;;;14.38;30.09;94118.50;5009499;28;20081;-64
2022/01/16 03:57:08;;;;;;;198.68;160.68;;;;;;;14.36;30.06;94110.09;5006800;28;20057;-64
2022/01/16 03:59:34;;;;;;;193.68;155.75;;;;;;;14.36;30.24;94116.22;5008664;28;20132;-64
2022/01/16 04:01:59;;;;;;;201.35;162.35;;;;;;;14.36;29.98;94115.47;5007818;28;20417;-64
2022/01/16 04:04:25;;;;;;;196.77;160.00;;;;;;;14.35;30.00;94122.78;5007527;28;20060;-64
2022/01/16 04:06:50;;;;;;;194.30;156.23;;;;;;;14.35;30.07;94133.56;5009445;28;20089;-64
2022/01/16 04:09:16;;;;;;;200.45;161.60;;;;;;;14.35;29.65;94133.56;5010799;28;20060;-64
2022/01/16 04:11:50;;;;;;;191.15;154.15;;;;;;;14.33;30.07;94135.91;5007935;28;20048;-64
2022/01/16 04:14:23;;;;;;;198.20;160.63;;;;;;;14.32;30.27;94134.41;5004273;28;20061;-64
2022/01/16 04:16:52;;;;;;;203.38;164.50;;;;;;;14.31;29.72;94132.91;5004513;28;21977;-64
2022/01/16 04:19:18;;;;;;;194.45;156.00;;;;;;;14.32;29.76;94123.63;5005503;28;20133;-64
2022/01/16 04:21:43;;;;;;;194.85;157.77;;;;;;;14.34;29.79;94123.22;5008909;28;20049;-65
2022/01/16 04:24:09;;;;;;;194.70;158.15;;;;;;;14.33;29.93;94125.16;5007599;28;20465;-64
2022/01/16 04:26:34;;;;;;;202.15;163.82;;;;;;;14.32;29.83;94118.25;5010445;28;20093;-64
2022/01/16 04:29:00;;;;;;;196.48;159.43;;;;;;;14.32;29.89;94112.88;5007812;28;20146;-64
2022/01/16 04:31:25;;;;;;;200.95;162.68;;;;;;;14.32;29.94;94118.25;4991182;28;20557;-64
2022/01/16 04:33:51;;;;;;;195.40;157.18;;;;;;;14.32;29.83;94123.63;5007385;28;20057;-64
2022/01/16 04:36:17;;;;;;;213.98;173.35;;;;;;;14.32;29.88;94125.56;5005629;28;21701;-64
2022/01/16 04:38:48;;;;;;;195.60;158.10;;;;;;;14.31;29.82;94122.13;5008886;28;20045;-64
2022/01/16 04:44:00;;;;;;;204.63;164.57;;;;;;;14.29;29.99;94132.59;5008103;28;20037;-64
2022/01/16 04:46:30;;;;;;;193.38;156.30;;;;;;;14.29;30.02;94140.66;5007698;28;20057;-64
2022/01/16 04:48:58;;;;;;;194.02;155.32;;;;;;;14.27;29.84;94134.19;5007207;28;20509;-64
2022/01/16 04:51:26;;;;;;;199.82;160.52;;;;;;;14.24;29.88;94135.81;5009125;28;20493;-64
2022/01/16 04:53:51;;;;;;;193.00;156.20;;;;;;;14.22;29.78;94140.84;5009276;28;20648;-64
2022/01/16 04:56:17;;;;;;;195.85;156.48;;;;;;;14.22;29.83;94146.22;5005291;28;20634;-65
2022/01/16 04:58:43;;;;;;;197.43;159.48;;;;;;;14.23;29.57;94138.91;4988622;28;20553;-64
2022/01/16 05:01:10;;;;;;;192.70;153.45;;;;;;;14.21;29.70;94139.34;5005675;28;20149;-64
2022/01/16 05:03:36;;;;;;;207.85;166.95;;;;;;;14.21;29.56;94142.03;5004391;28;20060;-65
2022/01/16 05:06:03;;;;;;;201.68;162.70;;;;;;;14.22;29.98;94148.91;5004976;28;20030;-65
2022/01/16 05:08:29;;;;;;;194.88;156.25;;;;;;;14.23;29.44;94158.50;5006531;28;20470;-64
2022/01/16 05:10:57;;;;;;;191.90;153.25;;;;;;;14.22;29.80;94148.16;5007913;28;20041;-64
2022/01/16 05:18:40;;;;;;;197.73;158.43;;;;;;;14.23;29.58;94152.38;5007500;28;20046;-64
2022/01/16 05:21:06;;;;;;;196.02;157.20;;;;;;;14.24;29.90;94160.00;5004986;28;20057;-64
2022/01/16 05:23:33;;;;;;;198.50;158.13;;;;;;;14.24;29.67;94161.94;5010547;28;20058;-64
2022/01/16 05:26:00;;;;;;;196.88;159.10;;;;;;;14.25;29.81;94160.75;5008398;28;20056;-65
2022/01/16 05:28:25;;;;;;;193.98;156.23;;;;;;;14.26;29.88;94164.97;5009298;28;20135;-64
2022/01/16 05:30:51;;;;;;;196.23;157.88;;;;;;;14.25;29.64;94169.59;5005999;28;20045;-63
2022/01/16 05:33:16;;;;;;;199.70;160.95;;;;;;;14.26;29.74;94171.09;5006909;28;20045;-64
2022/01/16 05:35:42;;;;;;;199.52;158.43;;;;;;;14.25;29.52;94177.66;5006248;28;20049;-64
2022/01/16 05:38:09;;;;;;;194.35;156.77;;;;;;;14.27;29.61;94178.00;5008739;28;20764;-64
2022/01/16 05:40:35;;;;;;;196.23;157.35;;;;;;;14.28;29.51;94192.19;5001440;28;20516;-64
2022/01/16 05:43:01;;;;;;;196.48;158.65;;;;;;;14.27;29.60;94185.31;5005349;28;20049;-64
2022/01/16 05:45:27;;;;;;;194.98;156.75;;;;;;;14.28;29.44;94181.44;5006923;28;20443;-64
2022/01/16 05:47:53;;;;;;;195.20;156.85;;;;;;;14.29;29.42;94186.41;5000824;28;20671;-64
2022/01/16 05:50:19;;;;;;;195.85;155.23;;;;;;;14.31;29.47;94178.63;5006124;28;20050;-65
2022/01/16 05:52:45;;;;;;;200.00;159.95;;;;;;;14.32;29.58;94177.44;4995894;28;20061;-64
2022/01/16 05:55:11;;;;;;;203.63;163.88;;;;;;;14.32;29.45;94188.19;4995512;28;20053;-64
2022/01/16 05:57:37;;;;;;;205.00;163.88;;;;;;;14.33;29.37;94194.34;5004060;28;20073;-64
2022/01/16 06:00:07;;;;;;;194.32;156.90;;;;;;;14.33;29.21;94183.59;5006844;28;20134;-64
2022/01/16 06:02:33;;;;;;;194.65;156.52;;;;;;;14.35;29.27;94183.91;5001691;28;20127;-64
2022/01/16 06:04:58;;;;;;;195.93;156.52;;;;;;;14.35;29.41;94181.22;5008488;28;20037;-63
2022/01/16 06:07:24;;;;;;;192.82;155.98;;;;;;;14.36;29.30;94185.41;5002972;28;20046;-64
2022/01/16 06:09:52;;;;;;;189.15;152.15;;;;;;;14.35;29.24;94190.03;5002468;28;20259;-64
2022/01/16 06:12:18;;;;;;;207.70;167.13;;;;;;;14.38;29.27;94196.50;5005441;28;20045;-64
2022/01/16 06:14:44;;;;;;;193.90;156.38;;;;;;;14.39;29.12;94193.41;5008370;28;20052;-63
2022/01/16 06:17:09;;;;;;;196.45;159.52;;;;;;;14.40;29.02;94188.78;5007066;28;20049;-63
2022/01/16 06:19:35;;;;;;;196.18;158.00;;;;;;;14.41;29.05;94195.66;5006521;28;20049;-63
2022/01/16 06:22:00;;;;;;;192.50;154.90;;;;;;;14.41;29.11;94199.13;5005457;28;20077;-64
2022/01/16 06:24:26;;;;;;;191.43;154.68;;;;;;;14.43;28.98;94212.16;5005749;28;20041;-63
2022/01/16 06:26:51;;;;;;;194.80;157.10;;;;;;;14.43;28.97;94218.31;5007765;28;20490;-63
2022/01/16 06:29:18;;;;;;;191.75;154.63;;;;;;;14.45;28.94;94223.25;5007187;28;20056;-64
2022/01/16 06:31:44;;;;;;;195.02;156.35;;;;;;;14.44;28.96;94206.34;5005353;28;20054;-63
2022/01/16 06:34:10;;;;;;;201.77;165.43;;;;;;;14.44;29.06;94211.75;5007946;28;20048;-64
2022/01/16 06:36:36;;;;;;;193.02;156.60;;;;;;;14.44;29.09;94211.75;5006886;28;20570;-63
2022/01/16 06:39:08;;;;;;;197.70;158.77;;;;;;;14.45;29.06;94207.88;5005697;28;20049;-65
2022/01/16 06:41:34;;;;;;;189.20;152.63;;;;;;;14.46;28.87;94216.69;5007415;28;20105;-64
2022/01/16 06:44:00;;;;;;;193.68;156.10;;;;;;;14.47;28.81;94212.81;5006410;28;20153;-64
2022/01/16 06:46:27;;;;;;;191.98;155.23;;;;;;;14.47;28.85;94213.59;5005598;28;20068;-63
2022/01/16 06:48:52;;;;;;;191.02;153.85;;;;;;;14.48;29.06;94211.66;5005663;28;20136;-64
2022/01/16 06:51:19;;;;;;;197.05;158.30;;;;;;;14.48;28.85;94203.56;5008716;28;20067;-64
2022/01/16 06:53:46;;;;;;;194.40;156.90;;;;;;;14.49;28.88;94218.53;5005782;28;20613;-63
2022/01/16 06:56:12;;;;;;;194.48;157.40;;;;;;;14.49;29.01;94213.16;5004482;28;20600;-64
2022/01/16 06:58:37;;;;;;;194.25;157.57;;;;;;;14.50;28.91;94220.81;5006857;28;20058;-63
2022/01/16 07:01:03;;;;;;;197.65;159.98;;;;;;;14.49;28.84;94219.28;4991880;28;20469;-64
2022/01/16 07:03:29;;;;;;;195.95;157.40;;;;;;;14.50;28.74;94217.38;5005348;28;20510;-64
2022/01/16 07:05:54;;;;;;;193.55;157.20;;;;;;;14.50;28.91;94228.88;5006381;28;20049;-64
2022/01/16 07:08:23;;;;;;;193.40;156.57;;;;;;;14.52;28.75;94225.00;5008535;28;20505;-64
2022/01/16 07:10:50;;;;;;;193.95;155.50;;;;;;;14.52;28.87;94220.38;5008553;28;20045;-63
2022/01/16 07:13:16;;;;;;;200.68;159.95;;;;;;;14.50;28.73;94228.88;5004459;28;20529;-63
2022/01/16 07:15:42;;;;;;;199.18;161.60;;;;;;;14.52;29.01;94225.75;5006455;28;20057;-63
2022/01/16 07:18:07;;;;;;;198.40;159.18;;;;;;;14.50;28.91;94220.06;4990418;28;20049;-63
2022/01/16 07:20:33;;;;;;;195.65;158.95;;;;;;;14.50;28.91;94220.06;5006002;28;20045;-63
2022/01/16 07:22:58;;;;;;;190.82;154.40;;;;;;;14.52;28.84;94230.41;5010038;28;20164;-63
2022/01/16 07:25:24;;;;;;;192.63;155.25;;;;;;;14.53;29.21;94234.59;5009032;28;20119;-63
2022/01/16 07:27:49;;;;;;;193.13;155.10;;;;;;;14.52;28.90;94241.91;5010488;28;20550;-63
2022/01/16 07:30:15;;;;;;;198.27;160.15;;;;;;;14.50;28.73;94238.88;5008778;28;20173;-64
2022/01/16 07:32:40;;;;;;;192.48;154.85;;;;;;;14.50;28.74;94244.28;5009091;28;20068;-63
2022/01/16 07:35:06;;;;;;;193.30;156.35;;;;;;;14.49;28.82;94245.44;5010891;28;20045;-64
2022/01/16 07:37:32;;;;;;;189.82;153.68;;;;;;;14.47;28.88;94261.25;5009739;28;20045;-64
2022/01/16 07:39:58;;;;;;;193.65;155.02;;;;;;;14.47;28.65;94253.94;5009615;28;20049;-62
2022/01/16 07:42:23;;;;;;;195.80;156.25;;;;;;;14.48;28.34;94236.63;5003890;28;20543;-64
2022/01/16 07:44:49;;;;;;;195.02;155.48;;;;;;;14.48;28.67;94250.06;5004610;28;20072;-63
2022/01/16 07:47:14;;;;;;;198.20;159.43;;;;;;;14.48;28.54;94255.47;5011176;28;20045;-64
2022/01/16 07:49:40;;;;;;;192.55;154.93;;;;;;;14.49;28.81;94258.91;5011104;28;20493;-63
2022/01/16 07:52:06;;;;;;;195.90;156.95;;;;;;;14.49;28.78;94254.28;5008151;28;20056;-64
2022/01/16 07:54:31;;;;;;;188.90;151.50;;;;;;;14.48;28.74;94252.78;5011158;28;20087;-64
2022/01/16 07:56:57;;;;;;;191.20;153.27;;;;;;;14.48;28.85;94258.16;5008344;28;20080;-63
2022/01/16 07:59:23;;;;;;;193.20;155.50;;;;;;;14.48;28.80;94260.84;5009891;28;20567;-64
2022/01/16 08:01:48;;;;;;;191.18;154.32;;;;;;;14.48;28.72;94258.16;5010037;28;20115;-65
2022/01/16 08:04:13;;;;;;;196.80;158.80;;;;;;;14.48;28.81;94260.84;5009901;28;20083;-63
2022/01/16 08:06:39;;;;;;;192.18;154.90;;;;;;;14.49;28.99;94261.59;5006989;28;20517;-64
2022/01/16 08:09:04;;;;;;;193.35;156.82;;;;;;;14.47;28.91;94267.41;5009203;28;20045;-63
2022/01/16 08:11:30;;;;;;;189.77;154.30;;;;;;;14.48;29.02;94255.47;5010642;28;20151;-63
2022/01/16 08:13:55;;;;;;;192.15;155.02;;;;;;;14.48;28.95;94252.78;5009618;28;20045;-65
2022/01/16 08:16:21;;;;;;;189.75;153.77;;;;;;;14.48;29.02;94257.41;5010097;28;20069;-62
2022/01/16 08:18:46;;;;;;;197.30;157.45;;;;;;;14.49;28.87;94256.22;5011487;28;20489;-64
2022/01/16 08:21:12;;;;;;;189.38;154.05;;;;;;;14.48;28.99;94260.84;5008030;28;20057;-65
2022/01/16 08:23:38;;;;;;;199.50;160.75;;;;;;;14.48;28.91;94262.78;5007723;28;20045;-64
2022/01/16 08:26:04;;;;;;;191.57;154.20;;;;;;;14.49;28.92;94269.66;5009451;28;20049;-64
2022/01/16 08:28:30;;;;;;;196.68;160.02;;;;;;;14.49;29.16;94275.06;5011598;28;20052;-64
2022/01/16 08:30:55;;;;;;;196.15;157.75;;;;;;;14.47;29.20;94275.47;5010087;28;20486;-64
2022/01/16 08:33:21;;;;;;;193.38;155.25;;;;;;;14.45;29.32;94277.84;5009948;28;20143;-68
2022/01/16 08:35:47;;;;;;;192.98;154.93;;;;;;;14.44;29.01;94276.31;5008672;28;20144;-68
2022/01/16 08:38:12;;;;;;;192.18;154.38;;;;;;;14.44;29.08;94284.41;5005201;28;20049;-64
2022/01/16 08:40:38;;;;;;;192.05;154.85;;;;;;;14.45;28.99;94277.06;5007152;28;20107;-63
2022/01/16 08:43:08;;;;;;;191.90;153.57;;;;;;;14.45;29.08;94267.06;5006953;28;21045;-63
2022/01/16 08:45:39;;;;;;;203.40;164.93;;;;;;;14.47;29.16;94267.41;5007652;28;20877;-63
2022/01/16 08:48:06;;;;;;;198.68;160.82;;;;;;;14.48;29.27;94263.53;5006600;28;20124;-61
2022/01/16 08:50:32;;;;;;;198.32;159.77;;;;;;;14.48;29.10;94287.00;5006988;28;20093;-67
2022/01/16 08:52:58;;;;;;;202.70;162.88;;;;;;;14.49;29.12;94283.13;5005413;28;20124;-64
2022/01/16 08:55:24;;;;;;;208.68;167.20;;;;;;;14.47;29.32;94280.84;5007844;28;20200;-62
2022/01/16 08:57:49;;;;;;;198.40;159.65;;;;;;;14.46;29.43;94286.66;5004636;28;20121;-64
2022/01/16 09:00:15;;;;;;;203.13;162.60;;;;;;;14.46;29.37;94286.66;5006753;28;20045;-64
2022/01/16 09:02:41;;;;;;;200.30;160.50;;;;;;;14.48;29.12;94295.81;5003197;28;20076;-64
2022/01/16 09:05:07;;;;;;;204.05;165.02;;;;;;;14.49;29.25;94296.56;5002939;28;20045;-64
2022/01/16 09:07:32;;;;;;;206.27;165.30;;;;;;;14.50;29.47;94292.72;5007023;28;20175;-65
2022/01/16 09:10:00;;;;;;;214.95;173.15;;;;;;;14.50;29.15;94296.16;5005799;28;20057;-65
2022/01/16 09:12:26;;;;;;;193.23;156.88;;;;;;;14.52;29.44;94290.34;5004512;28;20808;-65
2022/01/16 09:14:51;;;;;;;189.30;153.50;;;;;;;14.53;29.45;94288.41;5007536;28;20046;-65
2022/01/16 09:17:17;;;;;;;212.55;171.45;;;;;;;14.52;29.45;94287.66;5002104;28;20153;-64
2022/01/16 09:19:43;;;;;;;195.43;157.13;;;;;;;14.54;29.33;94293.38;5003058;28;20119;-65
2022/01/16 09:22:09;;;;;;;197.70;160.15;;;;;;;14.54;29.50;94282.59;5007477;28;20129;-64
2022/01/16 09:24:35;;;;;;;225.52;179.55;;;;;;;14.55;29.43;94281.44;4988328;28;20161;-64
2022/01/16 09:27:00;;;;;;;232.70;186.50;;;;;;;14.56;29.64;94280.25;4980493;28;20041;-63
2022/01/16 09:29:26;;;;;;;219.98;174.77;;;;;;;14.57;29.66;94278.31;4990693;28;20145;-63
2022/01/16 09:31:52;;;;;;;218.27;175.80;;;;;;;14.59;29.38;94284.03;4991334;28;20114;-64
2022/01/16 09:34:17;;;;;;;223.30;179.45;;;;;;;14.58;29.61;94294.03;4988558;28;20050;-64
2022/01/16 09:36:43;;;;;;;208.95;168.70;;;;;;;14.58;29.54;94285.22;4990164;28;20045;-63
2022/01/16 09:39:10;;;;;;;239.73;192.73;;;;;;;14.59;29.51;94297.50;4988113;28;20107;-64
2022/01/16 09:41:35;;;;;;;206.02;166.10;;;;;;;14.57;29.73;94297.16;4987771;28;20045;-63
2022/01/16 09:44:02;;;;;;;236.05;189.60;;;;;;;14.59;29.59;94287.47;4987496;28;20050;-64
2022/01/16 09:46:27;;;;;;;234.30;188.98;;;;;;;14.61;29.67;94284.38;4986160;28;20044;-63
2022/01/16 09:48:53;;;;;;;226.60;180.73;;;;;;;14.61;29.46;94287.81;4990649;28;21001;-63
2022/01/16 09:51:19;;;;;;;214.00;169.13;;;;;;;14.62;29.61;94291.25;4998598;28;20136;-63
2022/01/16 09:53:45;;;;;;;222.95;177.73;;;;;;;14.61;29.82;94287.81;4992232;28;20191;-64
2022/01/16 09:56:11;;;;;;;225.20;182.27;;;;;;;14.61;29.72;94295.13;4989412;28;20255;-63
2022/01/16 09:58:38;;;;;;;220.07;179.57;;;;;;;14.60;29.75;94285.53;4973063;28;20084;-64
2022/01/16 10:01:05;;;;;;;216.73;172.05;;;;;;;14.63;29.81;94298.16;4996111;28;20056;-64
2022/01/16 10:03:37;;;;;;;212.48;171.63;;;;;;;14.63;29.76;94300.84;4999769;28;20108;-64
2022/01/16 10:06:15;;;;;;;225.95;180.55;;;;;;;14.63;29.75;94303.53;4975990;28;20511;-64
2022/01/16 10:08:43;;;;;;;207.38;168.30;;;;;;;14.62;29.99;94297.41;4992462;28;20470;-64
2022/01/16 10:11:22;;;;;;;200.68;162.38;;;;;;;14.63;29.84;94301.59;5000044;28;20850;-64
2022/01/16 10:14:16;;;;;;;213.82;168.90;;;;;;;14.62;29.88;94297.41;4994759;28;20769;-64
2022/01/16 10:16:43;;;;;;;213.73;169.63;;;;;;;14.63;30.04;94290.84;4991791;28;20099;-63
2022/01/16 10:19:20;;;;;;;220.77;175.38;;;;;;;14.63;29.90;94284.69;4991727;28;20072;-63
2022/01/16 10:21:47;;;;;;;231.50;185.60;;;;;;;14.62;29.94;94283.94;4991886;28;20501;-63
2022/01/16 10:24:32;;;;;;;229.48;184.32;;;;;;;14.63;29.95;94271.22;4991343;28;20057;-64
2022/01/16 10:27:07;;;;;;;224.75;178.68;;;;;;;14.63;29.86;94277.38;4993063;28;20615;-64
2022/01/16 10:29:44;;;;;;;230.95;186.63;;;;;;;14.62;29.94;94275.88;4993472;28;20571;-64
2022/01/16 10:32:14;;;;;;;223.07;178.65;;;;;;;14.63;29.99;94271.22;4990212;28;20049;-63
2022/01/16 10:34:40;;;;;;;200.35;159.88;;;;;;;14.61;29.74;94273.59;4995218;28;20111;-63
2022/01/16 10:37:23;;;;;;;219.68;177.55;;;;;;;14.61;30.14;94270.91;4992827;28;20089;-63
2022/01/16 10:39:59;;;;;;;220.52;177.40;;;;;;;14.60;30.12;94277.47;4989478;28;20053;-63
2022/01/16 10:42:25;;;;;;;229.73;186.15;;;;;;;14.58;30.19;94269.06;4992422;28;20151;-64
2022/01/16 10:44:57;;;;;;;198.23;160.15;;;;;;;14.56;30.24;94266.03;4998372;28;20057;-64
2022/01/16 10:47:34;;;;;;;218.73;173.95;;;;;;;14.56;30.32;94268.72;4993787;28;20049;-63
2022/01/16 10:50:08;;;;;;;223.45;178.85;;;;;;;14.56;30.16;94276.81;4990611;28;21270;-64
2022/01/16 10:52:58;;;;;;;228.52;183.10;;;;;;;14.57;30.30;94284.44;4992492;28;20366;-64
2022/01/16 10:55:39;;;;;;;222.60;177.93;;;;;;;14.57;30.26;94289.84;4998901;28;20140;-63
2022/01/16 10:58:13;;;;;;;230.90;184.05;;;;;;;14.54;30.24;94288.00;4995207;28;20077;-64
2022/01/16 11:00:42;;;;;;;218.40;175.40;;;;;;;14.50;30.47;94284.63;4992544;28;20360;-63
2022/01/16 11:03:11;;;;;;;231.82;186.52;;;;;;;14.52;30.33;94295.72;4995235;28;20100;-65
2022/01/16 11:05:41;;;;;;;235.13;189.75;;;;;;;14.50;30.41;94290.03;4993285;28;20382;-63
2022/01/16 11:08:12;;;;;;;228.02;183.57;;;;;;;14.48;30.54;94292.38;4995522;28;20086;-63
2022/01/16 11:10:54;;;;;;;228.73;183.63;;;;;;;14.48;30.62;94292.38;4993644;28;20091;-64
2022/01/16 11:13:21;;;;;;;228.90;183.07;;;;;;;14.46;31.04;94305.50;4977486;28;20363;-64
2022/01/16 11:15:56;;;;;;;225.45;180.82;;;;;;;14.48;30.76;94311.97;4997963;28;20622;-64
2022/01/16 11:18:23;;;;;;;229.60;183.77;;;;;;;14.50;30.59;94306.16;4993523;28;20049;-63
2022/01/16 11:21:31;;;;;;;210.25;169.85;;;;;;;14.49;30.74;94308.09;4997205;28;20045;-63
2022/01/16 11:26:10;;;;;;;219.82;174.85;;;;;;;14.52;30.67;94316.50;4999537;28;20053;-64
2022/01/16 11:28:35;;;;;;;201.13;162.95;;;;;;;14.52;30.55;94313.81;5002223;28;20053;-64
2022/01/16 11:31:04;;;;;;;211.10;168.52;;;;;;;14.54;30.73;94317.59;5002559;28;20052;-65
2022/01/16 11:33:33;;;;;;;222.88;179.25;;;;;;;14.54;30.60;94327.59;4975800;28;20041;-63
2022/01/16 11:36:01;;;;;;;215.48;173.07;;;;;;;14.56;30.57;94328.69;4998423;28;20443;-65
2022/01/16 11:38:33;;;;;;;215.97;172.57;;;;;;;14.57;30.45;94318.69;5001305;28;20555;-64
2022/01/16 11:41:13;;;;;;;210.43;169.80;;;;;;;14.56;30.40;94322.56;5003354;28;20445;-65
2022/01/16 11:43:41;;;;;;;222.25;176.93;;;;;;;14.55;30.39;94319.09;4999901;28;20041;-65
2022/01/16 11:46:14;;;;;;;214.75;171.60;;;;;;;14.56;30.42;94319.88;4998993;28;20046;-66
2022/01/16 11:48:41;;;;;;;210.98;168.45;;;;;;;14.56;30.34;94325.25;4998483;28;20049;-65
2022/01/16 11:51:36;;;;;;;221.95;176.15;;;;;;;14.55;30.31;94329.13;4996475;28;20068;-65
2022/01/16 11:54:02;;;;;;;211.68;170.70;;;;;;;14.53;30.48;94321.47;4996060;28;20061;-67
2022/01/16 11:56:42;;;;;;;212.50;170.98;;;;;;;14.54;30.30;94328.34;5002212;28;20382;-67